sensor_id;sensor_type;location;lat;lon;timestamp;P1;durP1;ratioP1;P2;durP2;ratioP2
72974;SDS011;61166;54.228;37.632;2022-08-07T00:00:19;18.58;;;13.68;;
72974;SDS011;61166;54.228;37.632;2022-08-07T00:02:44;18.13;;;15.43;;
72974;SDS011;61166;54.228;37.632;2022-08-07T00:05:10;22.57;;;17.53;;
72974;SDS011;61166;54.228;37.632;2022-08-07T00:07:35;22.75;;;16.45;;
72974;SDS011;61166;54.228;37.632;2022-08-07T00:10:00;22.73;;;16.90;;
72974;SDS011;61166;54.228;37.632;2022-08-07T00:12:26;26.57;;;19.67;;
72974;SDS011;61166;54.228;37.632;2022-08-07T00:14:51;28.93;;;20.73;;
72974;SDS011;61166;54.228;37.632;2022-08-07T00:17:17;30.77;;;20.53;;
72974;SDS011;61166;54.228;37.632;2022-08-07T00:19:42;28.70;;;20.20;;
72974;SDS011;61166;54.228;37.632;2022-08-07T00:22:07;24.17;;;16.53;;
72974;SDS011;61166;54.228;37.632;2022-08-07T00:24:33;22.53;;;15.83;;
72974;SDS011;61166;54.228;37.632;2022-08-07T00:26:58;19.23;;;14.57;;
72974;SDS011;61166;54.228;37.632;2022-08-07T00:29:24;22.53;;;14.10;;
72974;SDS011;61166;54.228;37.632;2022-08-07T00:31:53;17.48;;;14.55;;
72974;SDS011;61166;54.228;37.632;2022-08-07T00:34:18;22.13;;;14.55;;
72974;SDS011;61166;54.228;37.632;2022-08-07T00:36:44;23.05;;;15.25;;
72974;SDS011;61166;54.228;37.632;2022-08-07T00:39:10;24.00;;;16.23;;
72974;SDS011;61166;54.228;37.632;2022-08-07T00:41:36;21.33;;;15.07;;
72974;SDS011;61166;54.228;37.632;2022-08-07T00:44:03;21.43;;;15.23;;
72974;SDS011;61166;54.228;37.632;2022-08-07T00:46:30;19.60;;;13.75;;
72974;SDS011;61166;54.228;37.632;2022-08-07T00:48:56;19.80;;;14.30;;
72974;SDS011;61166;54.228;37.632;2022-08-07T00:51:26;20.63;;;14.85;;
72974;SDS011;61166;54.228;37.632;2022-08-07T00:53:53;20.73;;;15.90;;
72974;SDS011;61166;54.228;37.632;2022-08-07T00:56:18;22.80;;;16.53;;
72974;SDS011;61166;54.228;37.632;2022-08-07T00:58:44;27.90;;;19.67;;
72974;SDS011;61166;54.228;37.632;2022-08-07T01:01:09;28.50;;;18.87;;
72974;SDS011;61166;54.228;37.632;2022-08-07T01:03:35;21.85;;;15.80;;
72974;SDS011;61166;54.228;37.632;2022-08-07T01:06:01;22.17;;;16.53;;
72974;SDS011;61166;54.228;37.632;2022-08-07T01:08:27;24.90;;;16.88;;
72974;SDS011;61166;54.228;37.632;2022-08-07T01:10:53;25.88;;;17.55;;
72974;SDS011;61166;54.228;37.632;2022-08-07T01:13:18;24.60;;;18.50;;
72974;SDS011;61166;54.228;37.632;2022-08-07T01:15:45;24.10;;;16.63;;
72974;SDS011;61166;54.228;37.632;2022-08-07T01:18:13;20.38;;;15.50;;
72974;SDS011;61166;54.228;37.632;2022-08-07T01:20:40;22.07;;;16.13;;
72974;SDS011;61166;54.228;37.632;2022-08-07T01:23:09;23.02;;;14.13;;
72974;SDS011;61166;54.228;37.632;2022-08-07T01:25:36;17.25;;;13.20;;
72974;SDS011;61166;54.228;37.632;2022-08-07T01:28:04;18.63;;;13.65;;
72974;SDS011;61166;54.228;37.632;2022-08-07T01:30:30;19.63;;;13.60;;
72974;SDS011;61166;54.228;37.632;2022-08-07T01:32:57;23.50;;;15.50;;
72974;SDS011;61166;54.228;37.632;2022-08-07T01:35:23;19.30;;;15.15;;
72974;SDS011;61166;54.228;37.632;2022-08-07T01:37:48;23.13;;;15.50;;
72974;SDS011;61166;54.228;37.632;2022-08-07T01:40:15;18.20;;;14.60;;
72974;SDS011;61166;54.228;37.632;2022-08-07T01:42:44;22.23;;;15.48;;
72974;SDS011;61166;54.228;37.632;2022-08-07T01:45:10;20.80;;;14.37;;
72974;SDS011;61166;54.228;37.632;2022-08-07T01:47:36;16.85;;;14.15;;
72974;SDS011;61166;54.228;37.632;2022-08-07T01:50:02;20.53;;;14.97;;
72974;SDS011;61166;54.228;37.632;2022-08-07T01:52:28;26.52;;;18.40;;
72974;SDS011;61166;54.228;37.632;2022-08-07T01:54:55;20.70;;;14.55;;
72974;SDS011;61166;54.228;37.632;2022-08-07T01:57:25;17.33;;;13.63;;
72974;SDS011;61166;54.228;37.632;2022-08-07T02:00:10;20.63;;;13.65;;
72974;SDS011;61166;54.228;37.632;2022-08-07T02:03:00;20.75;;;13.93;;
72974;SDS011;61166;54.228;37.632;2022-08-07T02:05:35;15.85;;;12.30;;
72974;SDS011;61166;54.228;37.632;2022-08-07T02:08:11;16.10;;;12.57;;
72974;SDS011;61166;54.228;37.632;2022-08-07T02:10:40;17.93;;;14.37;;
72974;SDS011;61166;54.228;37.632;2022-08-07T02:13:06;14.40;;;11.32;;
72974;SDS011;61166;54.228;37.632;2022-08-07T02:15:33;18.83;;;13.57;;
72974;SDS011;61166;54.228;37.632;2022-08-07T02:18:01;15.57;;;12.18;;
72974;SDS011;61166;54.228;37.632;2022-08-07T02:20:27;15.85;;;11.73;;
72974;SDS011;61166;54.228;37.632;2022-08-07T02:22:56;18.40;;;12.53;;
72974;SDS011;61166;54.228;37.632;2022-08-07T02:25:25;14.85;;;12.18;;
72974;SDS011;61166;54.228;37.632;2022-08-07T02:27:53;14.73;;;11.93;;
72974;SDS011;61166;54.228;37.632;2022-08-07T02:30:20;20.52;;;12.10;;
72974;SDS011;61166;54.228;37.632;2022-08-07T02:32:47;17.73;;;12.50;;
72974;SDS011;61166;54.228;37.632;2022-08-07T02:35:14;13.17;;;11.77;;
72974;SDS011;61166;54.228;37.632;2022-08-07T02:37:43;14.77;;;11.27;;
72974;SDS011;61166;54.228;37.632;2022-08-07T02:40:10;12.02;;;10.63;;
72974;SDS011;61166;54.228;37.632;2022-08-07T02:42:36;12.25;;;10.88;;
72974;SDS011;61166;54.228;37.632;2022-08-07T02:45:03;13.43;;;10.45;;
72974;SDS011;61166;54.228;37.632;2022-08-07T02:47:30;12.27;;;10.17;;
72974;SDS011;61166;54.228;37.632;2022-08-07T02:49:56;14.43;;;10.55;;
72974;SDS011;61166;54.228;37.632;2022-08-07T02:52:25;17.00;;;11.50;;
72974;SDS011;61166;54.228;37.632;2022-08-07T02:54:56;15.03;;;10.33;;
72974;SDS011;61166;54.228;37.632;2022-08-07T02:57:26;14.90;;;10.77;;
72974;SDS011;61166;54.228;37.632;2022-08-07T02:59:53;14.00;;;10.93;;
72974;SDS011;61166;54.228;37.632;2022-08-07T03:02:19;18.10;;;11.98;;
72974;SDS011;61166;54.228;37.632;2022-08-07T03:04:45;16.00;;;12.40;;
72974;SDS011;61166;54.228;37.632;2022-08-07T03:07:12;13.43;;;12.02;;
72974;SDS011;61166;54.228;37.632;2022-08-07T03:09:39;14.43;;;11.80;;
72974;SDS011;61166;54.228;37.632;2022-08-07T03:12:05;15.50;;;12.13;;
72974;SDS011;61166;54.228;37.632;2022-08-07T03:14:31;12.80;;;10.90;;
72974;SDS011;61166;54.228;37.632;2022-08-07T03:17:00;15.32;;;11.23;;
72974;SDS011;61166;54.228;37.632;2022-08-07T03:19:26;12.75;;;11.52;;
72974;SDS011;61166;54.228;37.632;2022-08-07T03:21:52;13.00;;;11.73;;
72974;SDS011;61166;54.228;37.632;2022-08-07T03:24:19;12.80;;;11.50;;
72974;SDS011;61166;54.228;37.632;2022-08-07T03:26:45;12.20;;;11.20;;
72974;SDS011;61166;54.228;37.632;2022-08-07T03:29:14;31.98;;;19.77;;
72974;SDS011;61166;54.228;37.632;2022-08-07T03:31:41;14.82;;;13.15;;
72974;SDS011;61166;54.228;37.632;2022-08-07T03:34:10;14.37;;;12.47;;
72974;SDS011;61166;54.228;37.632;2022-08-07T03:36:38;16.48;;;14.35;;
72974;SDS011;61166;54.228;37.632;2022-08-07T03:39:06;14.82;;;13.52;;
72974;SDS011;61166;54.228;37.632;2022-08-07T03:41:34;15.55;;;14.13;;
72974;SDS011;61166;54.228;37.632;2022-08-07T03:44:00;15.38;;;14.15;;
72974;SDS011;61166;54.228;37.632;2022-08-07T03:46:26;15.23;;;13.80;;
72974;SDS011;61166;54.228;37.632;2022-08-07T03:48:52;15.80;;;14.27;;
72974;SDS011;61166;54.228;37.632;2022-08-07T03:51:19;15.77;;;14.27;;
72974;SDS011;61166;54.228;37.632;2022-08-07T03:53:45;16.38;;;14.77;;
72974;SDS011;61166;54.228;37.632;2022-08-07T03:56:12;17.00;;;13.87;;
72974;SDS011;61166;54.228;37.632;2022-08-07T03:58:42;17.65;;;15.85;;
72974;SDS011;61166;54.228;37.632;2022-08-07T04:01:08;17.90;;;16.10;;
72974;SDS011;61166;54.228;37.632;2022-08-07T04:03:34;18.33;;;16.43;;
72974;SDS011;61166;54.228;37.632;2022-08-07T04:06:00;16.58;;;15.07;;
72974;SDS011;61166;54.228;37.632;2022-08-07T04:08:26;18.67;;;16.97;;
72974;SDS011;61166;54.228;37.632;2022-08-07T04:10:52;17.73;;;15.80;;
72974;SDS011;61166;54.228;37.632;2022-08-07T04:13:18;19.25;;;17.52;;
72974;SDS011;61166;54.228;37.632;2022-08-07T04:15:45;19.23;;;17.20;;
72974;SDS011;61166;54.228;37.632;2022-08-07T04:18:12;18.20;;;16.60;;
72974;SDS011;61166;54.228;37.632;2022-08-07T04:20:38;18.90;;;17.00;;
72974;SDS011;61166;54.228;37.632;2022-08-07T04:23:04;18.85;;;17.05;;
72974;SDS011;61166;54.228;37.632;2022-08-07T04:25:30;18.87;;;16.60;;
72974;SDS011;61166;54.228;37.632;2022-08-07T04:27:56;20.55;;;17.38;;
72974;SDS011;61166;54.228;37.632;2022-08-07T04:30:21;22.80;;;20.10;;
72974;SDS011;61166;54.228;37.632;2022-08-07T04:32:47;18.45;;;16.50;;
72974;SDS011;61166;54.228;37.632;2022-08-07T04:35:13;18.17;;;16.10;;
72974;SDS011;61166;54.228;37.632;2022-08-07T04:37:39;19.52;;;17.63;;
72974;SDS011;61166;54.228;37.632;2022-08-07T04:40:04;19.73;;;17.73;;
72974;SDS011;61166;54.228;37.632;2022-08-07T04:42:31;18.92;;;17.20;;
72974;SDS011;61166;54.228;37.632;2022-08-07T04:44:59;19.40;;;17.02;;
72974;SDS011;61166;54.228;37.632;2022-08-07T04:50:32;18.70;;;16.97;;
72974;SDS011;61166;54.228;37.632;2022-08-07T04:52:52;18.80;;;17.08;;
72974;SDS011;61166;54.228;37.632;2022-08-07T04:55:28;17.85;;;16.17;;
72974;SDS011;61166;54.228;37.632;2022-08-07T04:57:57;19.20;;;17.23;;
72974;SDS011;61166;54.228;37.632;2022-08-07T05:00:32;20.42;;;18.33;;
72974;SDS011;61166;54.228;37.632;2022-08-07T05:05:50;21.20;;;19.02;;
72974;SDS011;61166;54.228;37.632;2022-08-07T05:08:44;20.65;;;18.77;;
72974;SDS011;61166;54.228;37.632;2022-08-07T05:11:30;20.20;;;18.67;;
72974;SDS011;61166;54.228;37.632;2022-08-07T05:14:11;20.40;;;18.35;;
72974;SDS011;61166;54.228;37.632;2022-08-07T05:16:43;19.27;;;17.30;;
72974;SDS011;61166;54.228;37.632;2022-08-07T05:19:12;20.55;;;18.55;;
72974;SDS011;61166;54.228;37.632;2022-08-07T05:21:46;20.20;;;18.05;;
72974;SDS011;61166;54.228;37.632;2022-08-07T05:24:16;21.58;;;18.50;;
72974;SDS011;61166;54.228;37.632;2022-08-07T05:26:43;22.23;;;20.17;;
72974;SDS011;61166;54.228;37.632;2022-08-07T05:29:12;18.77;;;16.77;;
72974;SDS011;61166;54.228;37.632;2022-08-07T05:31:40;21.15;;;19.25;;
72974;SDS011;61166;54.228;37.632;2022-08-07T05:34:08;19.77;;;18.33;;
72974;SDS011;61166;54.228;37.632;2022-08-07T05:36:36;18.77;;;16.80;;
72974;SDS011;61166;54.228;37.632;2022-08-07T05:39:04;20.65;;;18.52;;
72974;SDS011;61166;54.228;37.632;2022-08-07T05:41:31;18.43;;;16.63;;
72974;SDS011;61166;54.228;37.632;2022-08-07T05:43:56;19.38;;;17.70;;
72974;SDS011;61166;54.228;37.632;2022-08-07T05:46:22;20.10;;;18.20;;
72974;SDS011;61166;54.228;37.632;2022-08-07T05:48:49;20.58;;;17.67;;
72974;SDS011;61166;54.228;37.632;2022-08-07T05:51:15;21.45;;;19.27;;
72974;SDS011;61166;54.228;37.632;2022-08-07T05:53:42;22.50;;;20.23;;
72974;SDS011;61166;54.228;37.632;2022-08-07T05:56:08;21.67;;;19.57;;
72974;SDS011;61166;54.228;37.632;2022-08-07T05:58:34;20.30;;;18.45;;
72974;SDS011;61166;54.228;37.632;2022-08-07T06:01:00;21.10;;;19.05;;
72974;SDS011;61166;54.228;37.632;2022-08-07T06:03:27;19.70;;;17.55;;
72974;SDS011;61166;54.228;37.632;2022-08-07T06:05:55;19.83;;;17.88;;
72974;SDS011;61166;54.228;37.632;2022-08-07T06:08:21;20.97;;;19.03;;
72974;SDS011;61166;54.228;37.632;2022-08-07T06:10:47;18.63;;;17.00;;
72974;SDS011;61166;54.228;37.632;2022-08-07T06:13:14;19.50;;;18.10;;
72974;SDS011;61166;54.228;37.632;2022-08-07T06:15:40;18.42;;;16.70;;
72974;SDS011;61166;54.228;37.632;2022-08-07T06:18:07;17.63;;;16.23;;
72974;SDS011;61166;54.228;37.632;2022-08-07T06:20:35;20.27;;;17.70;;
72974;SDS011;61166;54.228;37.632;2022-08-07T06:23:02;17.52;;;15.88;;
72974;SDS011;61166;54.228;37.632;2022-08-07T06:25:29;16.97;;;15.40;;
72974;SDS011;61166;54.228;37.632;2022-08-07T06:28:00;17.85;;;16.17;;
72974;SDS011;61166;54.228;37.632;2022-08-07T06:30:27;17.55;;;16.08;;
72974;SDS011;61166;54.228;37.632;2022-08-07T06:32:52;19.77;;;17.73;;
72974;SDS011;61166;54.228;37.632;2022-08-07T06:35:18;18.70;;;17.00;;
72974;SDS011;61166;54.228;37.632;2022-08-07T06:37:43;18.20;;;16.77;;
72974;SDS011;61166;54.228;37.632;2022-08-07T06:40:09;18.63;;;16.17;;
72974;SDS011;61166;54.228;37.632;2022-08-07T06:42:34;16.87;;;15.27;;
72974;SDS011;61166;54.228;37.632;2022-08-07T06:45:02;16.70;;;15.15;;
72974;SDS011;61166;54.228;37.632;2022-08-07T06:47:31;15.73;;;14.20;;
72974;SDS011;61166;54.228;37.632;2022-08-07T06:49:57;17.50;;;15.83;;
72974;SDS011;61166;54.228;37.632;2022-08-07T06:52:22;14.97;;;13.70;;
72974;SDS011;61166;54.228;37.632;2022-08-07T06:54:51;13.55;;;12.38;;
72974;SDS011;61166;54.228;37.632;2022-08-07T06:57:18;14.77;;;13.33;;
72974;SDS011;61166;54.228;37.632;2022-08-07T06:59:45;14.80;;;13.52;;
72974;SDS011;61166;54.228;37.632;2022-08-07T07:02:15;14.90;;;13.70;;
72974;SDS011;61166;54.228;37.632;2022-08-07T07:04:43;14.75;;;13.35;;
72974;SDS011;61166;54.228;37.632;2022-08-07T07:07:09;13.20;;;12.23;;
72974;SDS011;61166;54.228;37.632;2022-08-07T07:09:35;12.90;;;11.63;;
72974;SDS011;61166;54.228;37.632;2022-08-07T07:14:57;14.93;;;13.32;;
72974;SDS011;61166;54.228;37.632;2022-08-07T07:20:08;14.30;;;13.05;;
72974;SDS011;61166;54.228;37.632;2022-08-07T07:22:39;11.15;;;10.05;;
72974;SDS011;61166;54.228;37.632;2022-08-07T07:25:06;12.48;;;11.43;;
72974;SDS011;61166;54.228;37.632;2022-08-07T07:27:35;12.68;;;11.50;;
72974;SDS011;61166;54.228;37.632;2022-08-07T07:30:06;12.20;;;10.73;;
72974;SDS011;61166;54.228;37.632;2022-08-07T07:32:33;10.40;;;9.43;;
72974;SDS011;61166;54.228;37.632;2022-08-07T07:35:05;10.90;;;9.85;;
72974;SDS011;61166;54.228;37.632;2022-08-07T07:37:34;11.30;;;10.18;;
72974;SDS011;61166;54.228;37.632;2022-08-07T07:40:03;10.85;;;9.88;;
72974;SDS011;61166;54.228;37.632;2022-08-07T07:42:30;10.63;;;9.67;;
72974;SDS011;61166;54.228;37.632;2022-08-07T07:44:58;9.88;;;8.88;;
72974;SDS011;61166;54.228;37.632;2022-08-07T07:47:29;9.82;;;8.88;;
72974;SDS011;61166;54.228;37.632;2022-08-07T07:49:57;10.82;;;9.32;;
72974;SDS011;61166;54.228;37.632;2022-08-07T07:52:24;11.23;;;10.32;;
72974;SDS011;61166;54.228;37.632;2022-08-07T07:54:50;11.10;;;10.07;;
72974;SDS011;61166;54.228;37.632;2022-08-07T07:57:19;10.85;;;8.90;;
72974;SDS011;61166;54.228;37.632;2022-08-07T07:59:46;11.10;;;10.07;;
72974;SDS011;61166;54.228;37.632;2022-08-07T08:02:15;10.27;;;9.13;;
72974;SDS011;61166;54.228;37.632;2022-08-07T08:04:43;10.18;;;8.95;;
72974;SDS011;61166;54.228;37.632;2022-08-07T08:07:09;9.23;;;8.43;;
72974;SDS011;61166;54.228;37.632;2022-08-07T08:09:35;9.52;;;8.73;;
72974;SDS011;61166;54.228;37.632;2022-08-07T08:12:03;9.25;;;8.55;;
72974;SDS011;61166;54.228;37.632;2022-08-07T08:14:32;9.75;;;8.85;;
72974;SDS011;61166;54.228;37.632;2022-08-07T08:16:59;9.93;;;9.18;;
72974;SDS011;61166;54.228;37.632;2022-08-07T08:19:27;9.97;;;8.47;;
72974;SDS011;61166;54.228;37.632;2022-08-07T08:21:54;9.73;;;8.93;;
72974;SDS011;61166;54.228;37.632;2022-08-07T08:24:42;8.27;;;7.57;;
72974;SDS011;61166;54.228;37.632;2022-08-07T08:27:30;8.50;;;7.80;;
72974;SDS011;61166;54.228;37.632;2022-08-07T08:30:03;12.77;;;10.00;;
72974;SDS011;61166;54.228;37.632;2022-08-07T08:32:31;9.33;;;8.63;;
72974;SDS011;61166;54.228;37.632;2022-08-07T08:35:00;9.63;;;8.75;;
72974;SDS011;61166;54.228;37.632;2022-08-07T08:37:27;8.88;;;8.07;;
72974;SDS011;61166;54.228;37.632;2022-08-07T08:39:54;10.93;;;7.75;;
72974;SDS011;61166;54.228;37.632;2022-08-07T08:45:16;9.07;;;8.43;;
72974;SDS011;61166;54.228;37.632;2022-08-07T08:47:59;9.43;;;8.68;;
72974;SDS011;61166;54.228;37.632;2022-08-07T08:50:44;8.68;;;7.97;;
72974;SDS011;61166;54.228;37.632;2022-08-07T08:56:23;8.50;;;6.40;;
72974;SDS011;61166;54.228;37.632;2022-08-07T08:58:59;8.00;;;7.13;;
72974;SDS011;61166;54.228;37.632;2022-08-07T09:01:31;9.95;;;8.95;;
72974;SDS011;61166;54.228;37.632;2022-08-07T09:07:12;9.45;;;8.32;;
72974;SDS011;61166;54.228;37.632;2022-08-07T09:15:04;7.68;;;6.65;;
72974;SDS011;61166;54.228;37.632;2022-08-07T09:22:56;8.80;;;5.50;;
72974;SDS011;61166;54.228;37.632;2022-08-07T09:29:16;7.68;;;6.35;;
72974;SDS011;61166;54.228;37.632;2022-08-07T09:35:04;12.00;;;7.47;;
72974;SDS011;61166;54.228;37.632;2022-08-07T09:37:44;5.77;;;5.17;;
72974;SDS011;61166;54.228;37.632;2022-08-07T09:40:25;7.70;;;5.80;;
72974;SDS011;61166;54.228;37.632;2022-08-07T09:45:47;7.28;;;6.68;;
72974;SDS011;61166;54.228;37.632;2022-08-07T09:48:33;7.43;;;6.18;;
72974;SDS011;61166;54.228;37.632;2022-08-07T09:54:12;6.45;;;5.95;;
72974;SDS011;61166;54.228;37.632;2022-08-07T09:57:46;5.97;;;4.38;;
72974;SDS011;61166;54.228;37.632;2022-08-07T10:14:03;5.32;;;4.25;;
72974;SDS011;61166;54.228;37.632;2022-08-07T10:16:57;5.28;;;4.28;;
72974;SDS011;61166;54.228;37.632;2022-08-07T10:38:58;3.35;;;3.05;;
72974;SDS011;61166;54.228;37.632;2022-08-07T10:41:50;3.55;;;2.83;;
72974;SDS011;61166;54.228;37.632;2022-08-07T10:44:42;4.82;;;3.25;;
72974;SDS011;61166;54.228;37.632;2022-08-07T10:50:20;7.10;;;3.55;;
72974;SDS011;61166;54.228;37.632;2022-08-07T10:52:54;3.42;;;3.10;;
72974;SDS011;61166;54.228;37.632;2022-08-07T10:58:17;7.65;;;3.78;;
72974;SDS011;61166;54.228;37.632;2022-08-07T11:00:48;3.57;;;3.27;;
72974;SDS011;61166;54.228;37.632;2022-08-07T11:03:44;6.85;;;3.85;;
72974;SDS011;61166;54.228;37.632;2022-08-07T11:06:17;5.45;;;3.42;;
72974;SDS011;61166;54.228;37.632;2022-08-07T11:08:55;3.85;;;3.30;;
72974;SDS011;61166;54.228;37.632;2022-08-07T11:11:28;6.15;;;4.05;;
72974;SDS011;61166;54.228;37.632;2022-08-07T11:14:06;6.23;;;4.00;;
72974;SDS011;61166;54.228;37.632;2022-08-07T11:19:37;5.18;;;3.30;;
72974;SDS011;61166;54.228;37.632;2022-08-07T11:22:33;5.70;;;3.80;;
72974;SDS011;61166;54.228;37.632;2022-08-07T11:25:04;4.47;;;3.42;;
72974;SDS011;61166;54.228;37.632;2022-08-07T11:30:21;5.60;;;3.85;;
72974;SDS011;61166;54.228;37.632;2022-08-07T11:32:55;5.47;;;3.30;;
72974;SDS011;61166;54.228;37.632;2022-08-07T11:35:30;7.03;;;4.10;;
72974;SDS011;61166;54.228;37.632;2022-08-07T11:38:03;5.00;;;3.90;;
72974;SDS011;61166;54.228;37.632;2022-08-07T12:05:06;4.38;;;3.53;;
72974;SDS011;61166;54.228;37.632;2022-08-07T12:07:47;5.57;;;4.27;;
72974;SDS011;61166;54.228;37.632;2022-08-07T12:16:04;3.90;;;3.35;;
72974;SDS011;61166;54.228;37.632;2022-08-07T12:27:32;6.53;;;3.90;;
72974;SDS011;61166;54.228;37.632;2022-08-07T12:30:04;5.57;;;3.20;;
72974;SDS011;61166;54.228;37.632;2022-08-07T12:32:44;4.97;;;3.13;;
72974;SDS011;61166;54.228;37.632;2022-08-07T12:35:18;5.87;;;3.87;;
72974;SDS011;61166;54.228;37.632;2022-08-07T12:37:48;6.13;;;4.00;;
72974;SDS011;61166;54.228;37.632;2022-08-07T12:40:18;7.05;;;3.80;;
72974;SDS011;61166;54.228;37.632;2022-08-07T12:42:46;4.00;;;3.60;;
72974;SDS011;61166;54.228;37.632;2022-08-07T12:45:16;4.90;;;4.00;;
72974;SDS011;61166;54.228;37.632;2022-08-07T12:50:51;5.05;;;3.63;;
72974;SDS011;61166;54.228;37.632;2022-08-07T12:53:26;5.15;;;3.63;;
72974;SDS011;61166;54.228;37.632;2022-08-07T12:58:25;5.18;;;3.45;;
72974;SDS011;61166;54.228;37.632;2022-08-07T13:03:51;4.03;;;3.42;;
72974;SDS011;61166;54.228;37.632;2022-08-07T13:21:42;3.78;;;2.88;;
72974;SDS011;61166;54.228;37.632;2022-08-07T13:23:57;4.35;;;3.03;;
72974;SDS011;61166;54.228;37.632;2022-08-07T13:29:23;4.70;;;3.47;;
72974;SDS011;61166;54.228;37.632;2022-08-07T13:31:57;6.05;;;3.92;;
72974;SDS011;61166;54.228;37.632;2022-08-07T13:37:05;6.63;;;4.25;;
72974;SDS011;61166;54.228;37.632;2022-08-07T13:39:36;5.70;;;3.25;;
72974;SDS011;61166;54.228;37.632;2022-08-07T13:42:09;4.20;;;3.80;;
72974;SDS011;61166;54.228;37.632;2022-08-07T13:44:38;5.10;;;3.58;;
72974;SDS011;61166;54.228;37.632;2022-08-07T13:47:06;5.45;;;3.65;;
72974;SDS011;61166;54.228;37.632;2022-08-07T13:49:38;7.05;;;4.10;;
72974;SDS011;61166;54.228;37.632;2022-08-07T13:52:07;5.82;;;4.30;;
72974;SDS011;61166;54.228;37.632;2022-08-07T13:54:35;4.40;;;3.97;;
72974;SDS011;61166;54.228;37.632;2022-08-07T13:57:04;6.25;;;3.95;;
72974;SDS011;61166;54.228;37.632;2022-08-07T13:59:37;6.63;;;3.67;;
72974;SDS011;61166;54.228;37.632;2022-08-07T14:02:07;5.80;;;3.65;;
72974;SDS011;61166;54.228;37.632;2022-08-07T14:04:45;5.07;;;4.10;;
72974;SDS011;61166;54.228;37.632;2022-08-07T14:07:14;7.57;;;4.50;;
72974;SDS011;61166;54.228;37.632;2022-08-07T14:09:41;4.90;;;4.30;;
72974;SDS011;61166;54.228;37.632;2022-08-07T14:12:12;8.35;;;4.50;;
72974;SDS011;61166;54.228;37.632;2022-08-07T14:15:03;7.47;;;4.97;;
72974;SDS011;61166;54.228;37.632;2022-08-07T14:17:33;4.95;;;3.60;;
72974;SDS011;61166;54.228;37.632;2022-08-07T14:20:05;6.53;;;4.17;;
72974;SDS011;61166;54.228;37.632;2022-08-07T14:22:35;5.82;;;3.70;;
72974;SDS011;61166;54.228;37.632;2022-08-07T14:25:07;6.97;;;5.07;;
72974;SDS011;61166;54.228;37.632;2022-08-07T14:27:40;6.28;;;4.38;;
72974;SDS011;61166;54.228;37.632;2022-08-07T14:30:10;7.32;;;3.75;;
72974;SDS011;61166;54.228;37.632;2022-08-07T14:32:56;5.07;;;3.83;;
72974;SDS011;61166;54.228;37.632;2022-08-07T14:35:27;6.82;;;4.13;;
72974;SDS011;61166;54.228;37.632;2022-08-07T14:37:56;10.18;;;5.75;;
72974;SDS011;61166;54.228;37.632;2022-08-07T14:40:23;7.75;;;4.38;;
72974;SDS011;61166;54.228;37.632;2022-08-07T14:42:54;5.88;;;4.78;;
72974;SDS011;61166;54.228;37.632;2022-08-07T14:45:20;7.33;;;4.63;;
72974;SDS011;61166;54.228;37.632;2022-08-07T14:47:49;6.65;;;4.10;;
72974;SDS011;61166;54.228;37.632;2022-08-07T14:50:16;5.90;;;3.60;;
72974;SDS011;61166;54.228;37.632;2022-08-07T14:52:44;6.57;;;4.60;;
72974;SDS011;61166;54.228;37.632;2022-08-07T14:55:12;7.43;;;4.00;;
72974;SDS011;61166;54.228;37.632;2022-08-07T14:57:39;6.30;;;4.10;;
72974;SDS011;61166;54.228;37.632;2022-08-07T15:00:05;5.38;;;3.72;;
72974;SDS011;61166;54.228;37.632;2022-08-07T15:02:32;4.75;;;3.70;;
72974;SDS011;61166;54.228;37.632;2022-08-07T15:05:01;6.10;;;4.00;;
72974;SDS011;61166;54.228;37.632;2022-08-07T15:07:27;5.18;;;4.13;;
72974;SDS011;61166;54.228;37.632;2022-08-07T15:09:54;5.80;;;3.55;;
72974;SDS011;61166;54.228;37.632;2022-08-07T15:12:23;5.65;;;3.80;;
72974;SDS011;61166;54.228;37.632;2022-08-07T15:15:14;8.07;;;5.10;;
72974;SDS011;61166;54.228;37.632;2022-08-07T15:17:42;9.00;;;5.20;;
72974;SDS011;61166;54.228;37.632;2022-08-07T15:20:10;9.18;;;5.50;;
72974;SDS011;61166;54.228;37.632;2022-08-07T15:22:48;8.05;;;5.70;;
72974;SDS011;61166;54.228;37.632;2022-08-07T15:25:19;11.20;;;4.85;;
72974;SDS011;61166;54.228;37.632;2022-08-07T15:27:44;11.52;;;4.38;;
72974;SDS011;61166;54.228;37.632;2022-08-07T15:30:11;4.23;;;3.00;;
72974;SDS011;61166;54.228;37.632;2022-08-07T15:32:41;8.45;;;3.80;;
72974;SDS011;61166;54.228;37.632;2022-08-07T15:35:12;9.15;;;4.22;;
72974;SDS011;61166;54.228;37.632;2022-08-07T15:37:56;6.05;;;3.65;;
72974;SDS011;61166;54.228;37.632;2022-08-07T15:40:25;6.88;;;3.50;;
72974;SDS011;61166;54.228;37.632;2022-08-07T15:47:47;6.35;;;4.28;;
72974;SDS011;61166;54.228;37.632;2022-08-07T15:50:19;9.93;;;3.77;;
72974;SDS011;61166;54.228;37.632;2022-08-07T15:52:44;7.85;;;4.15;;
72974;SDS011;61166;54.228;37.632;2022-08-07T15:55:11;6.32;;;3.92;;
72974;SDS011;61166;54.228;37.632;2022-08-07T15:57:43;6.53;;;3.10;;
72974;SDS011;61166;54.228;37.632;2022-08-07T16:00:16;13.38;;;7.68;;
72974;SDS011;61166;54.228;37.632;2022-08-07T16:02:44;8.98;;;5.63;;
72974;SDS011;61166;54.228;37.632;2022-08-07T16:05:16;5.93;;;4.28;;
72974;SDS011;61166;54.228;37.632;2022-08-07T16:07:53;7.80;;;5.40;;
72974;SDS011;61166;54.228;37.632;2022-08-07T16:10:27;4.63;;;3.73;;
72974;SDS011;61166;54.228;37.632;2022-08-07T16:15:52;10.05;;;5.50;;
72974;SDS011;61166;54.228;37.632;2022-08-07T16:32:30;8.43;;;5.10;;
72974;SDS011;61166;54.228;37.632;2022-08-07T16:35:45;11.60;;;6.13;;
72974;SDS011;61166;54.228;37.632;2022-08-07T16:52:08;25.17;;;13.50;;
72974;SDS011;61166;54.228;37.632;2022-08-07T16:54:54;25.48;;;12.43;;
72974;SDS011;61166;54.228;37.632;2022-08-07T17:00:06;30.58;;;14.95;;
72974;SDS011;61166;54.228;37.632;2022-08-07T17:03:06;29.20;;;16.20;;
72974;SDS011;61166;54.228;37.632;2022-08-07T17:08:36;40.95;;;16.95;;
72974;SDS011;61166;54.228;37.632;2022-08-07T17:11:13;39.80;;;19.27;;
72974;SDS011;61166;54.228;37.632;2022-08-07T17:14:06;28.23;;;13.23;;
72974;SDS011;61166;54.228;37.632;2022-08-07T17:19:25;11.50;;;7.93;;
72974;SDS011;61166;54.228;37.632;2022-08-07T17:22:02;12.30;;;9.02;;
72974;SDS011;61166;54.228;37.632;2022-08-07T17:27:38;12.43;;;7.18;;
72974;SDS011;61166;54.228;37.632;2022-08-07T17:30:09;12.10;;;7.55;;
72974;SDS011;61166;54.228;37.632;2022-08-07T17:32:42;15.90;;;7.70;;
72974;SDS011;61166;54.228;37.632;2022-08-07T17:38:33;15.88;;;8.40;;
72974;SDS011;61166;54.228;37.632;2022-08-07T17:41:14;14.40;;;7.35;;
72974;SDS011;61166;54.228;37.632;2022-08-07T17:43:43;18.10;;;8.55;;
72974;SDS011;61166;54.228;37.632;2022-08-07T17:46:20;14.97;;;9.50;;
72974;SDS011;61166;54.228;37.632;2022-08-07T17:49:00;11.95;;;8.13;;
72974;SDS011;61166;54.228;37.632;2022-08-07T17:54:33;11.65;;;6.95;;
72974;SDS011;61166;54.228;37.632;2022-08-07T17:59:58;11.80;;;6.93;;
72974;SDS011;61166;54.228;37.632;2022-08-07T18:02:39;10.27;;;7.22;;
72974;SDS011;61166;54.228;37.632;2022-08-07T18:07:41;9.77;;;6.70;;
72974;SDS011;61166;54.228;37.632;2022-08-07T18:10:21;12.57;;;6.70;;
72974;SDS011;61166;54.228;37.632;2022-08-07T18:15:47;10.55;;;6.93;;